sensor_id;sensor_type;location;lat;lon;timestamp;P1;durP1;ratioP1;P2;durP2;ratioP2
4696;SDS011;2362;50.780;0.292;2023-02-05T00:02:25;25.88;;;5.10;;
4696;SDS011;2362;50.780;0.292;2023-02-05T00:04:50;24.52;;;4.97;;
4696;SDS011;2362;50.780;0.292;2023-02-05T00:07:17;21.73;;;5.45;;
4696;SDS011;2362;50.780;0.292;2023-02-05T00:09:43;29.95;;;6.13;;
4696;SDS011;2362;50.780;0.292;2023-02-05T00:12:08;18.85;;;5.18;;
4696;SDS011;2362;50.780;0.292;2023-02-05T00:14:34;20.88;;;5.95;;
4696;SDS011;2362;50.780;0.292;2023-02-05T00:17:00;28.38;;;5.72;;
4696;SDS011;2362;50.780;0.292;2023-02-05T00:19:26;26.88;;;6.07;;
4696;SDS011;2362;50.780;0.292;2023-02-05T00:21:51;25.85;;;5.28;;
4696;SDS011;2362;50.780;0.292;2023-02-05T00:24:17;21.55;;;6.53;;
4696;SDS011;2362;50.780;0.292;2023-02-05T00:26:42;18.13;;;5.60;;
4696;SDS011;2362;50.780;0.292;2023-02-05T00:29:08;19.33;;;5.35;;
4696;SDS011;2362;50.780;0.292;2023-02-05T00:31:34;18.27;;;4.75;;
4696;SDS011;2362;50.780;0.292;2023-02-05T00:33:59;16.95;;;5.07;;
4696;SDS011;2362;50.780;0.292;2023-02-05T00:36:25;24.42;;;5.68;;
4696;SDS011;2362;50.780;0.292;2023-02-05T00:38:52;18.92;;;4.53;;
4696;SDS011;2362;50.780;0.292;2023-02-05T00:41:18;25.35;;;6.28;;
4696;SDS011;2362;50.780;0.292;2023-02-05T00:43:44;26.83;;;5.22;;
4696;SDS011;2362;50.780;0.292;2023-02-05T00:46:11;32.20;;;6.13;;
4696;SDS011;2362;50.780;0.292;2023-02-05T00:48:37;18.10;;;4.70;;
4696;SDS011;2362;50.780;0.292;2023-02-05T00:51:04;16.90;;;4.65;;
4696;SDS011;2362;50.780;0.292;2023-02-05T00:53:30;22.77;;;6.00;;
4696;SDS011;2362;50.780;0.292;2023-02-05T00:55:55;16.38;;;4.22;;
4696;SDS011;2362;50.780;0.292;2023-02-05T00:58:21;21.77;;;4.40;;
4696;SDS011;2362;50.780;0.292;2023-02-05T01:00:48;25.77;;;5.13;;
4696;SDS011;2362;50.780;0.292;2023-02-05T01:03:15;17.67;;;4.80;;
4696;SDS011;2362;50.780;0.292;2023-02-05T01:05:41;21.90;;;4.95;;
4696;SDS011;2362;50.780;0.292;2023-02-05T01:08:07;19.13;;;4.20;;
4696;SDS011;2362;50.780;0.292;2023-02-05T01:10:35;23.23;;;5.65;;
4696;SDS011;2362;50.780;0.292;2023-02-05T01:13:01;13.43;;;4.55;;
4696;SDS011;2362;50.780;0.292;2023-02-05T01:15:28;26.52;;;4.63;;
4696;SDS011;2362;50.780;0.292;2023-02-05T01:17:54;20.20;;;4.05;;
4696;SDS011;2362;50.780;0.292;2023-02-05T01:20:19;26.35;;;5.55;;
4696;SDS011;2362;50.780;0.292;2023-02-05T01:22:46;23.58;;;4.45;;
4696;SDS011;2362;50.780;0.292;2023-02-05T01:25:11;21.23;;;5.97;;
4696;SDS011;2362;50.780;0.292;2023-02-05T01:27:37;25.63;;;4.82;;
4696;SDS011;2362;50.780;0.292;2023-02-05T01:30:04;14.70;;;4.35;;
4696;SDS011;2362;50.780;0.292;2023-02-05T01:32:30;30.00;;;5.03;;
4696;SDS011;2362;50.780;0.292;2023-02-05T01:34:57;17.80;;;4.32;;
4696;SDS011;2362;50.780;0.292;2023-02-05T01:37:22;15.57;;;4.35;;
4696;SDS011;2362;50.780;0.292;2023-02-05T01:39:49;12.82;;;3.75;;
4696;SDS011;2362;50.780;0.292;2023-02-05T01:47:45;19.02;;;4.40;;
4696;SDS011;2362;50.780;0.292;2023-02-05T01:50:11;20.63;;;5.00;;
4696;SDS011;2362;50.780;0.292;2023-02-05T01:52:37;20.17;;;4.22;;
4696;SDS011;2362;50.780;0.292;2023-02-05T01:55:03;16.15;;;4.50;;
4696;SDS011;2362;50.780;0.292;2023-02-05T01:57:31;17.45;;;3.78;;
4696;SDS011;2362;50.780;0.292;2023-02-05T01:59:58;30.73;;;4.75;;
4696;SDS011;2362;50.780;0.292;2023-02-05T02:02:24;25.90;;;4.45;;
4696;SDS011;2362;50.780;0.292;2023-02-05T02:04:51;28.38;;;5.53;;
4696;SDS011;2362;50.780;0.292;2023-02-05T02:07:21;17.55;;;4.53;;
4696;SDS011;2362;50.780;0.292;2023-02-05T02:09:49;19.00;;;4.38;;
4696;SDS011;2362;50.780;0.292;2023-02-05T02:12:17;33.67;;;5.55;;
4696;SDS011;2362;50.780;0.292;2023-02-05T02:14:48;26.05;;;4.13;;
4696;SDS011;2362;50.780;0.292;2023-02-05T02:17:18;16.63;;;4.40;;
4696;SDS011;2362;50.780;0.292;2023-02-05T02:19:50;24.80;;;4.40;;
4696;SDS011;2362;50.780;0.292;2023-02-05T02:23:12;29.85;;;5.10;;
4696;SDS011;2362;50.780;0.292;2023-02-05T02:30:58;33.58;;;5.07;;
4696;SDS011;2362;50.780;0.292;2023-02-05T02:33:28;16.23;;;4.57;;
4696;SDS011;2362;50.780;0.292;2023-02-05T02:38:39;20.57;;;4.67;;
4696;SDS011;2362;50.780;0.292;2023-02-05T02:43:52;18.20;;;4.70;;
4696;SDS011;2362;50.780;0.292;2023-02-05T02:48:54;20.65;;;4.40;;
4696;SDS011;2362;50.780;0.292;2023-02-05T02:51:24;24.92;;;4.45;;
4696;SDS011;2362;50.780;0.292;2023-02-05T02:53:53;17.23;;;4.60;;
4696;SDS011;2362;50.780;0.292;2023-02-05T02:56:23;26.88;;;5.95;;
4696;SDS011;2362;50.780;0.292;2023-02-05T02:58:52;26.92;;;5.22;;
4696;SDS011;2362;50.780;0.292;2023-02-05T03:01:25;25.67;;;5.47;;
4696;SDS011;2362;50.780;0.292;2023-02-05T03:04:02;21.92;;;4.85;;
4696;SDS011;2362;50.780;0.292;2023-02-05T03:06:32;21.65;;;4.68;;
4696;SDS011;2362;50.780;0.292;2023-02-05T03:09:05;28.73;;;4.82;;
4696;SDS011;2362;50.780;0.292;2023-02-05T03:11:37;30.73;;;5.10;;
4696;SDS011;2362;50.780;0.292;2023-02-05T03:14:03;27.85;;;4.78;;
4696;SDS011;2362;50.780;0.292;2023-02-05T03:16:28;28.58;;;5.07;;
4696;SDS011;2362;50.780;0.292;2023-02-05T03:18:55;22.45;;;4.70;;
4696;SDS011;2362;50.780;0.292;2023-02-05T03:21:29;27.65;;;5.18;;
4696;SDS011;2362;50.780;0.292;2023-02-05T03:24:00;17.40;;;5.45;;
4696;SDS011;2362;50.780;0.292;2023-02-05T03:26:27;18.85;;;5.88;;
4696;SDS011;2362;50.780;0.292;2023-02-05T03:28:55;19.27;;;6.43;;
4696;SDS011;2362;50.780;0.292;2023-02-05T03:31:24;20.73;;;5.75;;
4696;SDS011;2362;50.780;0.292;2023-02-05T03:45:22;30.33;;;6.13;;
4696;SDS011;2362;50.780;0.292;2023-02-05T03:50:31;28.00;;;5.93;;
4696;SDS011;2362;50.780;0.292;2023-02-05T03:53:20;28.98;;;6.18;;
4696;SDS011;2362;50.780;0.292;2023-02-05T03:55:51;23.83;;;5.45;;
4696;SDS011;2362;50.780;0.292;2023-02-05T03:58:26;29.52;;;6.72;;
4696;SDS011;2362;50.780;0.292;2023-02-05T04:00:57;26.30;;;5.65;;
4696;SDS011;2362;50.780;0.292;2023-02-05T04:03:23;19.73;;;5.60;;
4696;SDS011;2362;50.780;0.292;2023-02-05T04:05:49;32.90;;;7.30;;
4696;SDS011;2362;50.780;0.292;2023-02-05T04:08:14;30.75;;;5.97;;
4696;SDS011;2362;50.780;0.292;2023-02-05T04:10:40;20.42;;;5.95;;
4696;SDS011;2362;50.780;0.292;2023-02-05T04:13:06;23.17;;;6.03;;
4696;SDS011;2362;50.780;0.292;2023-02-05T04:15:32;24.38;;;6.13;;
4696;SDS011;2362;50.780;0.292;2023-02-05T04:17:57;17.08;;;5.72;;
4696;SDS011;2362;50.780;0.292;2023-02-05T04:20:23;24.25;;;5.95;;
4696;SDS011;2362;50.780;0.292;2023-02-05T04:22:48;21.05;;;5.65;;
4696;SDS011;2362;50.780;0.292;2023-02-05T04:25:14;22.40;;;6.43;;
4696;SDS011;2362;50.780;0.292;2023-02-05T04:27:40;29.55;;;6.63;;
4696;SDS011;2362;50.780;0.292;2023-02-05T04:30:05;29.88;;;6.68;;
4696;SDS011;2362;50.780;0.292;2023-02-05T04:32:32;23.08;;;6.38;;
4696;SDS011;2362;50.780;0.292;2023-02-05T04:34:57;27.70;;;7.13;;
4696;SDS011;2362;50.780;0.292;2023-02-05T04:37:23;21.05;;;7.45;;
4696;SDS011;2362;50.780;0.292;2023-02-05T04:39:49;21.83;;;7.50;;
4696;SDS011;2362;50.780;0.292;2023-02-05T04:42:39;21.35;;;7.28;;
4696;SDS011;2362;50.780;0.292;2023-02-05T04:45:06;21.00;;;7.22;;
4696;SDS011;2362;50.780;0.292;2023-02-05T04:47:32;28.60;;;7.28;;
4696;SDS011;2362;50.780;0.292;2023-02-05T04:49:58;36.80;;;8.35;;
4696;SDS011;2362;50.780;0.292;2023-02-05T04:52:24;27.25;;;7.35;;
4696;SDS011;2362;50.780;0.292;2023-02-05T04:54:50;25.85;;;7.05;;
4696;SDS011;2362;50.780;0.292;2023-02-05T04:57:15;22.70;;;6.88;;
4696;SDS011;2362;50.780;0.292;2023-02-05T04:59:41;22.58;;;5.82;;
4696;SDS011;2362;50.780;0.292;2023-02-05T05:02:07;26.10;;;6.53;;
4696;SDS011;2362;50.780;0.292;2023-02-05T05:04:32;17.55;;;5.63;;
4696;SDS011;2362;50.780;0.292;2023-02-05T05:06:58;21.42;;;4.82;;
4696;SDS011;2362;50.780;0.292;2023-02-05T05:09:24;21.42;;;5.03;;
4696;SDS011;2362;50.780;0.292;2023-02-05T05:11:50;24.50;;;4.35;;
4696;SDS011;2362;50.780;0.292;2023-02-05T05:14:17;19.63;;;3.30;;
4696;SDS011;2362;50.780;0.292;2023-02-05T05:16:43;13.45;;;3.28;;
4696;SDS011;2362;50.780;0.292;2023-02-05T05:19:09;12.30;;;2.83;;
4696;SDS011;2362;50.780;0.292;2023-02-05T05:21:34;19.40;;;3.08;;
4696;SDS011;2362;50.780;0.292;2023-02-05T05:24:00;12.32;;;2.30;;
4696;SDS011;2362;50.780;0.292;2023-02-05T05:26:26;15.82;;;3.00;;
4696;SDS011;2362;50.780;0.292;2023-02-05T05:28:52;19.23;;;3.20;;
4696;SDS011;2362;50.780;0.292;2023-02-05T05:31:19;14.55;;;2.72;;
4696;SDS011;2362;50.780;0.292;2023-02-05T05:33:45;13.48;;;2.90;;
4696;SDS011;2362;50.780;0.292;2023-02-05T05:36:11;15.77;;;2.80;;
4696;SDS011;2362;50.780;0.292;2023-02-05T05:38:37;9.95;;;3.45;;
4696;SDS011;2362;50.780;0.292;2023-02-05T05:41:03;13.27;;;2.50;;
4696;SDS011;2362;50.780;0.292;2023-02-05T05:43:48;10.35;;;2.30;;
4696;SDS011;2362;50.780;0.292;2023-02-05T05:46:25;17.92;;;2.60;;
4696;SDS011;2362;50.780;0.292;2023-02-05T05:48:52;23.23;;;3.50;;
4696;SDS011;2362;50.780;0.292;2023-02-05T05:51:20;8.35;;;1.92;;
4696;SDS011;2362;50.780;0.292;2023-02-05T05:53:47;19.13;;;2.67;;
4696;SDS011;2362;50.780;0.292;2023-02-05T05:56:13;15.23;;;2.25;;
4696;SDS011;2362;50.780;0.292;2023-02-05T05:58:39;16.98;;;1.95;;
4696;SDS011;2362;50.780;0.292;2023-02-05T06:01:06;9.45;;;2.15;;
4696;SDS011;2362;50.780;0.292;2023-02-05T06:03:32;23.30;;;2.65;;
4696;SDS011;2362;50.780;0.292;2023-02-05T06:06:04;5.68;;;1.40;;
4696;SDS011;2362;50.780;0.292;2023-02-05T06:08:31;8.68;;;1.58;;
4696;SDS011;2362;50.780;0.292;2023-02-05T06:10:57;14.90;;;2.47;;
4696;SDS011;2362;50.780;0.292;2023-02-05T06:13:23;11.85;;;1.60;;
4696;SDS011;2362;50.780;0.292;2023-02-05T06:15:50;13.13;;;1.45;;
4696;SDS011;2362;50.780;0.292;2023-02-05T06:18:16;16.77;;;2.42;;
4696;SDS011;2362;50.780;0.292;2023-02-05T06:20:41;19.25;;;2.15;;
4696;SDS011;2362;50.780;0.292;2023-02-05T06:23:07;5.70;;;1.65;;
4696;SDS011;2362;50.780;0.292;2023-02-05T06:25:33;13.20;;;2.63;;
4696;SDS011;2362;50.780;0.292;2023-02-05T06:27:58;11.23;;;1.88;;
4696;SDS011;2362;50.780;0.292;2023-02-05T06:30:24;12.65;;;1.77;;
4696;SDS011;2362;50.780;0.292;2023-02-05T06:32:50;17.65;;;1.42;;
4696;SDS011;2362;50.780;0.292;2023-02-05T06:35:15;10.45;;;1.95;;
4696;SDS011;2362;50.780;0.292;2023-02-05T06:37:41;20.92;;;1.98;;
4696;SDS011;2362;50.780;0.292;2023-02-05T06:40:07;12.75;;;1.52;;
4696;SDS011;2362;50.780;0.292;2023-02-05T06:42:33;11.75;;;1.83;;
4696;SDS011;2362;50.780;0.292;2023-02-05T06:44:59;11.68;;;2.35;;
4696;SDS011;2362;50.780;0.292;2023-02-05T06:47:24;15.27;;;2.35;;
4696;SDS011;2362;50.780;0.292;2023-02-05T06:49:50;6.47;;;2.03;;
4696;SDS011;2362;50.780;0.292;2023-02-05T06:52:16;16.73;;;1.98;;
4696;SDS011;2362;50.780;0.292;2023-02-05T06:54:41;13.88;;;1.98;;
4696;SDS011;2362;50.780;0.292;2023-02-05T06:57:08;8.90;;;2.05;;
4696;SDS011;2362;50.780;0.292;2023-02-05T06:59:35;14.88;;;1.98;;
4696;SDS011;2362;50.780;0.292;2023-02-05T07:02:01;18.85;;;3.55;;
4696;SDS011;2362;50.780;0.292;2023-02-05T07:04:26;8.60;;;1.67;;
4696;SDS011;2362;50.780;0.292;2023-02-05T07:06:55;12.60;;;2.10;;
4696;SDS011;2362;50.780;0.292;2023-02-05T07:09:21;18.08;;;1.80;;
4696;SDS011;2362;50.780;0.292;2023-02-05T07:11:47;12.07;;;1.95;;
4696;SDS011;2362;50.780;0.292;2023-02-05T07:14:12;15.48;;;2.50;;
4696;SDS011;2362;50.780;0.292;2023-02-05T07:16:38;13.90;;;1.80;;
4696;SDS011;2362;50.780;0.292;2023-02-05T07:19:04;16.48;;;2.00;;
4696;SDS011;2362;50.780;0.292;2023-02-05T07:21:29;16.98;;;2.17;;
4696;SDS011;2362;50.780;0.292;2023-02-05T07:23:55;19.55;;;2.13;;
4696;SDS011;2362;50.780;0.292;2023-02-05T07:26:20;16.90;;;2.80;;
4696;SDS011;2362;50.780;0.292;2023-02-05T07:28:47;15.00;;;1.50;;
4696;SDS011;2362;50.780;0.292;2023-02-05T07:31:15;13.68;;;1.33;;
4696;SDS011;2362;50.780;0.292;2023-02-05T07:33:45;15.70;;;1.98;;
4696;SDS011;2362;50.780;0.292;2023-02-05T07:36:16;12.88;;;1.42;;
4696;SDS011;2362;50.780;0.292;2023-02-05T07:38:42;13.30;;;1.92;;
4696;SDS011;2362;50.780;0.292;2023-02-05T07:41:10;14.77;;;2.38;;
4696;SDS011;2362;50.780;0.292;2023-02-05T07:43:38;11.77;;;1.52;;
4696;SDS011;2362;50.780;0.292;2023-02-05T07:46:04;17.23;;;2.97;;
4696;SDS011;2362;50.780;0.292;2023-02-05T07:48:32;16.00;;;1.77;;
4696;SDS011;2362;50.780;0.292;2023-02-05T07:50:58;13.02;;;2.42;;
4696;SDS011;2362;50.780;0.292;2023-02-05T07:53:24;23.15;;;2.78;;
4696;SDS011;2362;50.780;0.292;2023-02-05T07:55:50;18.63;;;2.63;;
4696;SDS011;2362;50.780;0.292;2023-02-05T07:58:16;12.80;;;2.13;;
4696;SDS011;2362;50.780;0.292;2023-02-05T08:00:42;12.10;;;1.63;;
4696;SDS011;2362;50.780;0.292;2023-02-05T08:03:07;18.63;;;3.33;;
4696;SDS011;2362;50.780;0.292;2023-02-05T08:05:35;21.10;;;2.97;;
4696;SDS011;2362;50.780;0.292;2023-02-05T08:08:01;23.70;;;2.53;;
4696;SDS011;2362;50.780;0.292;2023-02-05T08:10:27;17.13;;;3.13;;
4696;SDS011;2362;50.780;0.292;2023-02-05T08:12:53;20.20;;;2.65;;
4696;SDS011;2362;50.780;0.292;2023-02-05T08:15:19;25.15;;;3.03;;
4696;SDS011;2362;50.780;0.292;2023-02-05T08:17:44;10.68;;;2.42;;
4696;SDS011;2362;50.780;0.292;2023-02-05T08:20:10;28.70;;;5.43;;
4696;SDS011;2362;50.780;0.292;2023-02-05T08:22:37;21.50;;;1.85;;
4696;SDS011;2362;50.780;0.292;2023-02-05T08:25:04;22.90;;;2.78;;
4696;SDS011;2362;50.780;0.292;2023-02-05T08:27:32;29.40;;;5.22;;
4696;SDS011;2362;50.780;0.292;2023-02-05T08:29:59;26.67;;;2.65;;
4696;SDS011;2362;50.780;0.292;2023-02-05T08:32:24;18.60;;;2.97;;
4696;SDS011;2362;50.780;0.292;2023-02-05T08:34:50;22.38;;;2.15;;
4696;SDS011;2362;50.780;0.292;2023-02-05T08:37:41;15.10;;;1.70;;
4696;SDS011;2362;50.780;0.292;2023-02-05T08:40:07;23.10;;;2.45;;
4696;SDS011;2362;50.780;0.292;2023-02-05T08:42:33;24.05;;;3.65;;
4696;SDS011;2362;50.780;0.292;2023-02-05T08:44:59;30.88;;;2.97;;
4696;SDS011;2362;50.780;0.292;2023-02-05T08:47:25;12.98;;;2.33;;
4696;SDS011;2362;50.780;0.292;2023-02-05T08:49:51;40.60;;;2.90;;
4696;SDS011;2362;50.780;0.292;2023-02-05T08:52:17;22.50;;;3.13;;
4696;SDS011;2362;50.780;0.292;2023-02-05T08:54:43;22.13;;;2.17;;
4696;SDS011;2362;50.780;0.292;2023-02-05T08:57:08;14.15;;;2.50;;
4696;SDS011;2362;50.780;0.292;2023-02-05T08:59:34;25.83;;;3.17;;
4696;SDS011;2362;50.780;0.292;2023-02-05T09:02:00;25.20;;;4.30;;
4696;SDS011;2362;50.780;0.292;2023-02-05T09:04:26;22.63;;;2.65;;
4696;SDS011;2362;50.780;0.292;2023-02-05T09:06:51;17.90;;;2.22;;
4696;SDS011;2362;50.780;0.292;2023-02-05T09:09:17;16.48;;;2.40;;
4696;SDS011;2362;50.780;0.292;2023-02-05T09:11:46;25.13;;;3.03;;
4696;SDS011;2362;50.780;0.292;2023-02-05T09:14:13;21.63;;;3.35;;
4696;SDS011;2362;50.780;0.292;2023-02-05T09:16:39;18.58;;;3.22;;
4696;SDS011;2362;50.780;0.292;2023-02-05T09:19:05;24.75;;;3.75;;
4696;SDS011;2362;50.780;0.292;2023-02-05T09:21:31;12.95;;;2.55;;
4696;SDS011;2362;50.780;0.292;2023-02-05T09:23:57;29.25;;;3.90;;
4696;SDS011;2362;50.780;0.292;2023-02-05T09:26:23;23.63;;;2.97;;
4696;SDS011;2362;50.780;0.292;2023-02-05T09:28:49;23.35;;;3.88;;
4696;SDS011;2362;50.780;0.292;2023-02-05T09:31:16;32.88;;;3.72;;
4696;SDS011;2362;50.780;0.292;2023-02-05T09:33:43;19.65;;;2.50;;
4696;SDS011;2362;50.780;0.292;2023-02-05T09:36:17;25.30;;;2.30;;
4696;SDS011;2362;50.780;0.292;2023-02-05T09:38:44;25.87;;;3.23;;
4696;SDS011;2362;50.780;0.292;2023-02-05T09:41:16;28.30;;;2.80;;
4696;SDS011;2362;50.780;0.292;2023-02-05T09:43:56;32.80;;;3.90;;
4696;SDS011;2362;50.780;0.292;2023-02-05T09:52:02;38.75;;;3.17;;
4696;SDS011;2362;50.780;0.292;2023-02-05T09:54:35;27.25;;;3.08;;
4696;SDS011;2362;50.780;0.292;2023-02-05T09:57:07;25.60;;;3.72;;
4696;SDS011;2362;50.780;0.292;2023-02-05T09:59:37;22.67;;;3.25;;
4696;SDS011;2362;50.780;0.292;2023-02-05T10:05:11;29.42;;;2.53;;
4696;SDS011;2362;50.780;0.292;2023-02-05T10:12:58;31.58;;;3.67;;
4696;SDS011;2362;50.780;0.292;2023-02-05T10:18:23;31.85;;;3.60;;
4696;SDS011;2362;50.780;0.292;2023-02-05T10:21:06;25.15;;;3.63;;
4696;SDS011;2362;50.780;0.292;2023-02-05T10:23:49;30.33;;;4.13;;
4696;SDS011;2362;50.780;0.292;2023-02-05T10:32:21;36.15;;;4.07;;
4696;SDS011;2362;50.780;0.292;2023-02-05T10:34:54;21.75;;;2.85;;
4696;SDS011;2362;50.780;0.292;2023-02-05T10:37:45;32.22;;;3.00;;
4696;SDS011;2362;50.780;0.292;2023-02-05T10:40:13;28.13;;;3.47;;
4696;SDS011;2362;50.780;0.292;2023-02-05T10:42:43;31.00;;;3.65;;
4696;SDS011;2362;50.780;0.292;2023-02-05T10:45:15;22.60;;;4.00;;
4696;SDS011;2362;50.780;0.292;2023-02-05T10:47:48;27.80;;;3.20;;
4696;SDS011;2362;50.780;0.292;2023-02-05T10:50:53;38.75;;;4.35;;
4696;SDS011;2362;50.780;0.292;2023-02-05T10:53:28;37.67;;;3.30;;
4696;SDS011;2362;50.780;0.292;2023-02-05T10:55:55;38.17;;;3.83;;
4696;SDS011;2362;50.780;0.292;2023-02-05T10:58:34;17.15;;;3.15;;
4696;SDS011;2362;50.780;0.292;2023-02-05T11:01:10;27.65;;;4.55;;
4696;SDS011;2362;50.780;0.292;2023-02-05T11:03:54;21.63;;;4.80;;
4696;SDS011;2362;50.780;0.292;2023-02-05T11:06:22;27.60;;;5.05;;
4696;SDS011;2362;50.780;0.292;2023-02-05T11:08:51;30.55;;;4.32;;
4696;SDS011;2362;50.780;0.292;2023-02-05T11:11:18;25.85;;;4.28;;
4696;SDS011;2362;50.780;0.292;2023-02-05T11:14:00;33.10;;;4.35;;
4696;SDS011;2362;50.780;0.292;2023-02-05T11:17:02;33.08;;;4.32;;
4696;SDS011;2362;50.780;0.292;2023-02-05T11:19:20;24.05;;;4.15;;
4696;SDS011;2362;50.780;0.292;2023-02-05T11:21:49;23.30;;;3.13;;
4696;SDS011;2362;50.780;0.292;2023-02-05T11:27:20;26.50;;;3.55;;
4696;SDS011;2362;50.780;0.292;2023-02-05T11:29:51;31.77;;;4.15;;
4696;SDS011;2362;50.780;0.292;2023-02-05T11:32:21;27.13;;;3.42;;
4696;SDS011;2362;50.780;0.292;2023-02-05T11:35:11;22.35;;;3.55;;
4696;SDS011;2362;50.780;0.292;2023-02-05T11:40:32;31.30;;;3.83;;
4696;SDS011;2362;50.780;0.292;2023-02-05T11:43:33;33.08;;;3.78;;
4696;SDS011;2362;50.780;0.292;2023-02-05T11:46:00;20.27;;;3.28;;
4696;SDS011;2362;50.780;0.292;2023-02-05T11:51:08;24.05;;;3.58;;
4696;SDS011;2362;50.780;0.292;2023-02-05T11:53:57;25.98;;;4.28;;
4696;SDS011;2362;50.780;0.292;2023-02-05T11:56:26;27.92;;;3.47;;
4696;SDS011;2362;50.780;0.292;2023-02-05T11:59:02;37.47;;;3.53;;
4696;SDS011;2362;50.780;0.292;2023-02-05T12:01:31;35.60;;;4.15;;
4696;SDS011;2362;50.780;0.292;2023-02-05T12:09:21;16.98;;;1.92;;
4696;SDS011;2362;50.780;0.292;2023-02-05T12:14:43;29.42;;;3.90;;
4696;SDS011;2362;50.780;0.292;2023-02-05T12:19:57;26.38;;;3.72;;
4696;SDS011;2362;50.780;0.292;2023-02-05T12:25:13;28.38;;;4.45;;
4696;SDS011;2362;50.780;0.292;2023-02-05T12:27:55;27.80;;;4.50;;
4696;SDS011;2362;50.780;0.292;2023-02-05T12:38:25;33.13;;;4.15;;
4696;SDS011;2362;50.780;0.292;2023-02-05T12:43:39;29.58;;;4.45;;
4696;SDS011;2362;50.780;0.292;2023-02-05T13:00:24;30.40;;;4.18;;
4696;SDS011;2362;50.780;0.292;2023-02-05T13:03:07;40.10;;;4.07;;
4696;SDS011;2362;50.780;0.292;2023-02-05T13:05:45;30.75;;;2.95;;
4696;SDS011;2362;50.780;0.292;2023-02-05T13:08:18;28.70;;;3.53;;
4696;SDS011;2362;50.780;0.292;2023-02-05T13:10:56;28.80;;;4.05;;
4696;SDS011;2362;50.780;0.292;2023-02-05T13:16:49;35.58;;;4.88;;
4696;SDS011;2362;50.780;0.292;2023-02-05T13:22:12;22.40;;;4.32;;
4696;SDS011;2362;50.780;0.292;2023-02-05T13:25:13;34.25;;;4.35;;
4696;SDS011;2362;50.780;0.292;2023-02-05T13:27:55;35.63;;;3.53;;
4696;SDS011;2362;50.780;0.292;2023-02-05T13:30:46;25.42;;;3.38;;
4696;SDS011;2362;50.780;0.292;2023-02-05T13:33:15;16.70;;;2.95;;
4696;SDS011;2362;50.780;0.292;2023-02-05T13:35:42;21.45;;;3.40;;
4696;SDS011;2362;50.780;0.292;2023-02-05T13:46:56;25.35;;;3.85;;
4696;SDS011;2362;50.780;0.292;2023-02-05T13:53:03;27.25;;;4.05;;
4696;SDS011;2362;50.780;0.292;2023-02-05T13:55:23;32.97;;;4.03;;
4696;SDS011;2362;50.780;0.292;2023-02-05T13:58:15;18.60;;;2.90;;
4696;SDS011;2362;50.780;0.292;2023-02-05T14:00:50;22.60;;;3.35;;
4696;SDS011;2362;50.780;0.292;2023-02-05T14:03:27;24.48;;;3.22;;
4696;SDS011;2362;50.780;0.292;2023-02-05T14:05:59;35.20;;;4.38;;
4696;SDS011;2362;50.780;0.292;2023-02-05T14:08:47;22.83;;;3.30;;
4696;SDS011;2362;50.780;0.292;2023-02-05T14:11:15;20.63;;;3.65;;
4696;SDS011;2362;50.780;0.292;2023-02-05T14:13:48;28.73;;;3.78;;
4696;SDS011;2362;50.780;0.292;2023-02-05T14:16:59;20.25;;;3.65;;
4696;SDS011;2362;50.780;0.292;2023-02-05T14:21:57;33.35;;;3.70;;
4696;SDS011;2362;50.780;0.292;2023-02-05T14:24:44;31.40;;;3.78;;
4696;SDS011;2362;50.780;0.292;2023-02-05T14:29:50;26.02;;;3.50;;
4696;SDS011;2362;50.780;0.292;2023-02-05T14:35:04;24.52;;;2.85;;
4696;SDS011;2362;50.780;0.292;2023-02-05T14:38:22;30.17;;;4.15;;
4696;SDS011;2362;50.780;0.292;2023-02-05T14:43:39;27.23;;;3.38;;
4696;SDS011;2362;50.780;0.292;2023-02-05T14:48:58;23.65;;;3.40;;
4696;SDS011;2362;50.780;0.292;2023-02-05T14:53:59;27.15;;;3.70;;
4696;SDS011;2362;50.780;0.292;2023-02-05T14:56:41;31.35;;;3.58;;
4696;SDS011;2362;50.780;0.292;2023-02-05T14:59:24;21.88;;;2.55;;
4696;SDS011;2362;50.780;0.292;2023-02-05T15:01:53;36.40;;;4.00;;
4696;SDS011;2362;50.780;0.292;2023-02-05T15:07:28;25.15;;;3.17;;
4696;SDS011;2362;50.780;0.292;2023-02-05T15:10:06;18.10;;;3.15;;
4696;SDS011;2362;50.780;0.292;2023-02-05T15:17:57;31.48;;;4.10;;
4696;SDS011;2362;50.780;0.292;2023-02-05T15:20:28;25.40;;;4.53;;
4696;SDS011;2362;50.780;0.292;2023-02-05T15:23:00;19.50;;;3.17;;
4696;SDS011;2362;50.780;0.292;2023-02-05T15:25:54;26.90;;;4.85;;
4696;SDS011;2362;50.780;0.292;2023-02-05T15:28:31;29.65;;;4.10;;
4696;SDS011;2362;50.780;0.292;2023-02-05T15:33:55;30.20;;;4.85;;
4696;SDS011;2362;50.780;0.292;2023-02-05T15:36:42;19.13;;;3.20;;
4696;SDS011;2362;50.780;0.292;2023-02-05T15:41:48;31.23;;;4.35;;
4696;SDS011;2362;50.780;0.292;2023-02-05T15:44:27;38.35;;;4.22;;
4696;SDS011;2362;50.780;0.292;2023-02-05T15:46:55;27.15;;;4.65;;
4696;SDS011;2362;50.780;0.292;2023-02-05T15:49:27;21.30;;;3.42;;
4696;SDS011;2362;50.780;0.292;2023-02-05T15:51:55;26.60;;;4.25;;
4696;SDS011;2362;50.780;0.292;2023-02-05T15:54:21;36.72;;;3.75;;
4696;SDS011;2362;50.780;0.292;2023-02-05T15:56:49;26.48;;;4.72;;
4696;SDS011;2362;50.780;0.292;2023-02-05T15:59:27;24.98;;;4.47;;
4696;SDS011;2362;50.780;0.292;2023-02-05T16:02:14;23.48;;;3.92;;
4696;SDS011;2362;50.780;0.292;2023-02-05T16:04:44;46.42;;;4.10;;
4696;SDS011;2362;50.780;0.292;2023-02-05T16:07:22;33.10;;;4.88;;
4696;SDS011;2362;50.780;0.292;2023-02-05T16:09:48;17.70;;;3.30;;
4696;SDS011;2362;50.780;0.292;2023-02-05T16:12:16;24.95;;;4.45;;
4696;SDS011;2362;50.780;0.292;2023-02-05T16:14:41;21.15;;;3.55;;
4696;SDS011;2362;50.780;0.292;2023-02-05T16:24:42;25.75;;;4.90;;
4696;SDS011;2362;50.780;0.292;2023-02-05T16:27:16;23.85;;;4.80;;
4696;SDS011;2362;50.780;0.292;2023-02-05T16:29:56;21.92;;;4.10;;
4696;SDS011;2362;50.780;0.292;2023-02-05T16:34:57;32.72;;;4.75;;
4696;SDS011;2362;50.780;0.292;2023-02-05T16:37:28;40.80;;;5.15;;
4696;SDS011;2362;50.780;0.292;2023-02-05T16:39:56;37.10;;;5.57;;
4696;SDS011;2362;50.780;0.292;2023-02-05T16:47:35;37.92;;;4.75;;
4696;SDS011;2362;50.780;0.292;2023-02-05T16:50:30;24.33;;;4.38;;
4696;SDS011;2362;50.780;0.292;2023-02-05T16:52:56;34.67;;;5.40;;
4696;SDS011;2362;50.780;0.292;2023-02-05T16:57:51;30.48;;;6.03;;
4696;SDS011;2362;50.780;0.292;2023-02-05T17:02:52;28.02;;;5.35;;
4696;SDS011;2362;50.780;0.292;2023-02-05T17:05:20;35.33;;;5.30;;
4696;SDS011;2362;50.780;0.292;2023-02-05T17:07:54;39.30;;;5.97;;
4696;SDS011;2362;50.780;0.292;2023-02-05T17:10:25;40.72;;;5.75;;
4696;SDS011;2362;50.780;0.292;2023-02-05T17:12:58;46.95;;;8.30;;
4696;SDS011;2362;50.780;0.292;2023-02-05T17:15:38;31.88;;;6.10;;
4696;SDS011;2362;50.780;0.292;2023-02-05T17:20:43;43.58;;;9.95;;
4696;SDS011;2362;50.780;0.292;2023-02-05T17:23:11;28.40;;;6.07;;
4696;SDS011;2362;50.780;0.292;2023-02-05T17:28:20;39.08;;;7.47;;
4696;SDS011;2362;50.780;0.292;2023-02-05T17:30:52;44.72;;;8.02;;
4696;SDS011;2362;50.780;0.292;2023-02-05T17:33:22;25.02;;;5.43;;
4696;SDS011;2362;50.780;0.292;2023-02-05T17:35:50;48.53;;;9.60;;
4696;SDS011;2362;50.780;0.292;2023-02-05T17:38:16;42.00;;;9.52;;
4696;SDS011;2362;50.780;0.292;2023-02-05T17:40:44;47.22;;;7.07;;
4696;SDS011;2362;50.780;0.292;2023-02-05T17:43:10;34.65;;;4.53;;
4696;SDS011;2362;50.780;0.292;2023-02-05T17:45:37;34.88;;;6.57;;
4696;SDS011;2362;50.780;0.292;2023-02-05T17:48:04;41.15;;;7.90;;
4696;SDS011;2362;50.780;0.292;2023-02-05T17:50:31;43.03;;;7.13;;
4696;SDS011;2362;50.780;0.292;2023-02-05T17:52:58;42.83;;;12.43;;
4696;SDS011;2362;50.780;0.292;2023-02-05T17:55:24;61.08;;;15.68;;
4696;SDS011;2362;50.780;0.292;2023-02-05T17:57:50;63.35;;;21.13;;
4696;SDS011;2362;50.780;0.292;2023-02-05T18:00:17;74.13;;;21.02;;
4696;SDS011;2362;50.780;0.292;2023-02-05T18:02:45;50.35;;;15.07;;
4696;SDS011;2362;50.780;0.292;2023-02-05T18:05:11;52.88;;;11.10;;
4696;SDS011;2362;50.780;0.292;2023-02-05T18:07:38;41.05;;;9.38;;
4696;SDS011;2362;50.780;0.292;2023-02-05T18:10:08;73.32;;;11.52;;
4696;SDS011;2362;50.780;0.292;2023-02-05T18:12:39;49.00;;;7.57;;
4696;SDS011;2362;50.780;0.292;2023-02-05T18:15:04;42.47;;;8.13;;